Terminal Aerodrome Forecast
Issued by NWS Sterling, VA

Current Version | Previous Version | Graphics & Text | Print | Product List | Glossary On
Versions: 1 2 3 4 5 6 7 8 9 10 11 12 13 14 15 16 17 18 19 20 21
000
FTUS41 KLWX 192336
TAFMRB
TAF
KMRB 192336Z 2000/2024 30005KT P6SM VCTS FEW050CB SCT080
      TEMPO 2001/2002 32011G25KT 6SM -TSRA BR BKN035CB
     FM200300 36004KT P6SM SKC=

USA.gov is the U.S. government's official web portal to all federal, state and local government web resources and services.